createdAt,value
2019-04-22T00:02:24.628Z,41.93
2019-04-22T00:05:07.229Z,41.71
2019-04-22T00:07:53.304Z,41.90
2019-04-22T00:10:28.952Z,41.68
2019-04-22T00:13:11.293Z,41.72
2019-04-22T00:15:20.164Z,41.83
2019-04-22T00:18:11.632Z,41.92
2019-04-22T00:20:30.782Z,41.79
2019-04-22T00:23:00.098Z,41.73
2019-04-22T00:25:45.490Z,41.94
2019-04-22T00:28:08.186Z,41.86
2019-04-22T00:30:35.971Z,42.09
2019-04-22T00:33:11.623Z,42.19
2019-04-22T00:35:41.359Z,42.14
2019-04-22T00:40:56.297Z,42.31
2019-04-22T00:43:21.071Z,42.54
2019-04-22T00:45:49.196Z,42.36
2019-04-22T00:51:05.805Z,42.59
2019-04-22T00:53:33.427Z,42.78
2019-04-22T00:56:13.797Z,42.57
2019-04-22T00:58:41.174Z,42.79
2019-04-22T01:03:50.509Z,42.82
2019-04-22T01:08:53.813Z,43.41
2019-04-22T01:11:22.767Z,43.45
2019-04-22T01:13:52.011Z,43.58
2019-04-22T01:16:25.735Z,43.53
2019-04-22T01:18:57.463Z,43.98
2019-04-22T01:21:30.755Z,43.82
2019-04-22T01:23:56.589Z,43.69
2019-04-22T01:26:24.299Z,43.95
2019-04-22T01:28:53.513Z,44.23
2019-04-22T01:31:18.137Z,44.32
2019-04-22T01:33:49.776Z,44.14
2019-04-22T01:36:38.212Z,44.38
2019-04-22T01:39:13.401Z,44.27
2019-04-22T01:41:48.413Z,44.38
2019-04-22T01:51:58.673Z,44.75
2019-04-22T01:54:27.252Z,44.73
2019-04-22T01:56:53.836Z,44.99
2019-04-22T01:59:15.718Z,44.95
2019-04-22T02:04:35.384Z,45.32
2019-04-22T02:06:57.535Z,45.04
2019-04-22T02:09:31.151Z,45.28
2019-04-22T02:12:00.565Z,45.18
2019-04-22T02:14:34.127Z,45.37
2019-04-22T02:17:01.305Z,45.41
2019-04-22T02:21:59.701Z,46.03
2019-04-22T02:24:39.858Z,45.87
2019-04-22T02:27:10.947Z,45.71
2019-04-22T02:32:19.506Z,46.02
2019-04-22T02:34:46.005Z,46.17
2019-04-22T02:37:21.021Z,46.21
2019-04-22T02:39:52.797Z,46.57
2019-04-22T02:44:46.628Z,47.06
2019-04-22T02:49:47.397Z,46.88
2019-04-22T02:52:27.776Z,47.12
2019-04-22T02:54:55.048Z,47.23
2019-04-22T03:00:00.484Z,47.19
2019-04-22T03:02:46.119Z,47.47
2019-04-22T03:05:06.195Z,48.04
2019-04-22T03:09:59.472Z,48.48
2019-04-22T03:12:29.063Z,48.14
2019-04-22T03:14:59.979Z,48.18
2019-04-22T03:17:38.352Z,47.91
2019-04-22T03:20:22.110Z,48.04
2019-04-22T03:22:34.392Z,47.68
2019-04-22T03:25:43.810Z,47.65
2019-04-22T03:40:43.269Z,47.64
2019-04-22T03:42:57.786Z,47.48
2019-04-22T03:57:56.067Z,48.17
2019-04-22T04:00:36.042Z,48.54
2019-04-22T04:03:04.690Z,49.12
2019-04-22T04:05:39.518Z,48.74
2019-04-22T04:08:12.092Z,48.73
2019-04-22T04:13:19.694Z,48.27
2019-04-22T04:15:32.819Z,48.28
2019-04-22T04:18:06.891Z,48.17
2019-04-22T04:20:45.102Z,48.25
2019-04-22T04:28:31.538Z,47.67
2019-04-22T04:30:42.834Z,47.48
2019-04-22T04:33:23.405Z,47.75
2019-04-22T04:38:28.922Z,47.17
2019-04-22T04:40:58.248Z,47.17
2019-04-22T04:43:25.771Z,47.23
2019-04-22T04:46:02.893Z,46.99
2019-04-22T04:48:39.087Z,46.73
2019-04-22T04:51:07.790Z,46.71
2019-04-22T04:56:01.877Z,46.41
2019-04-22T05:01:12.240Z,45.93
2019-04-22T05:06:09.977Z,45.86
2019-04-22T05:08:52.355Z,45.56
2019-04-22T05:11:05.572Z,45.65
2019-04-22T05:26:18.239Z,43.88
2019-04-22T05:28:42.240Z,43.82
2019-04-22T05:31:15.442Z,43.93
2019-04-22T05:33:48.348Z,43.78
2019-04-22T05:41:16.372Z,43.28
2019-04-22T05:43:51.298Z,43.19
2019-04-22T05:46:20.501Z,42.86
2019-04-22T05:48:53.783Z,42.71
2019-04-22T05:51:29.347Z,42.44
2019-04-22T05:53:54.255Z,42.56
2019-04-22T05:56:34.771Z,41.85
2019-04-22T06:01:41.726Z,34.33
2019-04-22T06:04:05.366Z,33.47
2019-04-22T06:06:34.194Z,32.39
2019-04-22T06:09:05.124Z,30.35
2019-04-22T06:11:33.998Z,30.68
2019-04-22T06:14:12.335Z,31.05
2019-04-22T06:16:50.399Z,31.48
2019-04-22T06:21:52.036Z,28.81
2019-04-22T06:24:26.078Z,29.89
2019-04-22T06:29:28.475Z,30.84
2019-04-22T06:32:17.585Z,29.53
2019-04-22T06:34:28.773Z,28.62
2019-04-22T06:39:34.550Z,28.23
2019-04-22T06:42:08.724Z,28.70
2019-04-22T06:44:37.042Z,30.62
2019-04-22T06:47:05.315Z,34.44
2019-04-22T06:49:42.182Z,36.72
2019-04-22T06:52:16.897Z,37.74
2019-04-22T06:54:44.646Z,38.85
2019-04-22T06:57:17.222Z,38.88
2019-04-22T06:59:42.641Z,38.59
2019-04-22T07:02:16.475Z,38.06
2019-04-22T07:04:53.835Z,38.68
2019-04-22T07:07:19.051Z,38.44
2019-04-22T07:12:24.698Z,38.30
2019-04-22T07:14:54.583Z,38.14
2019-04-22T07:17:22.071Z,37.84
2019-04-22T07:19:51.238Z,37.74
2019-04-22T07:22:30.650Z,37.53
2019-04-22T07:24:58.973Z,38.02
2019-04-22T07:27:28.038Z,37.83
2019-04-22T07:32:53.536Z,37.08
2019-04-22T07:35:07.475Z,37.25
2019-04-22T07:37:38.981Z,36.73
2019-04-22T07:40:02.440Z,36.45
2019-04-22T07:42:36.918Z,36.77
2019-04-22T07:45:10.274Z,36.57
2019-04-22T07:47:44.627Z,36.62
2019-04-22T07:50:25.664Z,36.80
2019-04-22T07:52:49.091Z,36.35
2019-04-22T07:55:12.019Z,36.19
2019-04-22T07:57:51.860Z,35.11
2019-04-22T08:00:35.721Z,35.49
2019-04-22T08:03:01.342Z,36.30
2019-04-22T08:05:24.841Z,34.96
2019-04-22T08:07:59.440Z,34.53
2019-04-22T08:10:31.410Z,34.54
2019-04-22T08:13:01.842Z,34.59
2019-04-22T08:15:31.284Z,34.54
2019-04-22T08:20:39.188Z,35.71
2019-04-22T08:23:04.634Z,35.29
2019-04-22T08:25:38.829Z,34.29
2019-04-22T08:28:11.390Z,34.52
2019-04-22T08:30:50.509Z,35.10
2019-04-22T08:33:22.224Z,34.80
2019-04-22T08:36:00.808Z,34.09
2019-04-22T08:38:14.690Z,34.37
2019-04-22T08:41:17.863Z,35.00
2019-04-22T08:43:51.455Z,34.36
2019-04-22T08:46:17.039Z,33.55
2019-04-22T08:48:48.438Z,33.91
2019-04-22T08:51:15.065Z,34.33
2019-04-22T08:53:51.857Z,33.55
2019-04-22T08:56:29.865Z,34.60
2019-04-22T08:58:50.169Z,33.50
2019-04-22T09:01:22.682Z,33.75
2019-04-22T09:03:52.750Z,33.78
2019-04-22T09:06:48.072Z,33.55
2019-04-22T09:11:33.720Z,33.14
2019-04-22T09:14:08.666Z,34.01
2019-04-22T09:16:31.819Z,33.81
2019-04-22T09:19:00.893Z,33.33
2019-04-22T09:24:05.021Z,32.99
2019-04-22T09:26:38.857Z,33.20
2019-04-22T09:29:16.163Z,32.97
2019-04-22T09:32:03.855Z,33.40
2019-04-22T09:34:06.490Z,33.09
2019-04-22T09:36:44.326Z,32.92
2019-04-22T09:39:19.557Z,33.15
2019-04-22T09:41:47.610Z,32.69
2019-04-22T09:44:16.466Z,32.54
2019-04-22T09:46:47.121Z,32.23
2019-04-22T09:49:19.306Z,32.70
2019-04-22T09:51:52.540Z,32.44
2019-04-22T09:54:21.691Z,32.16
2019-04-22T09:56:51.776Z,31.85
2019-04-22T09:59:43.690Z,32.46
2019-04-22T10:02:09.952Z,31.83
2019-04-22T10:04:25.370Z,32.04
2019-04-22T10:07:04.282Z,31.85
2019-04-22T10:12:02.750Z,30.98
2019-04-22T10:17:04.965Z,30.93
2019-04-22T10:19:38.746Z,32.01
2019-04-22T10:22:17.106Z,31.01
2019-04-22T10:24:38.809Z,31.18
2019-04-22T10:27:05.979Z,30.09
2019-04-22T10:29:52.210Z,29.51
2019-04-22T10:32:11.296Z,29.71
2019-04-22T10:34:37.927Z,30.73
2019-04-22T10:37:02.696Z,29.45
2019-04-22T10:39:39.923Z,29.80
2019-04-22T10:42:03.147Z,29.75
2019-04-22T10:44:33.245Z,29.52
2019-04-22T10:47:02.590Z,29.16
2019-04-22T10:49:31.844Z,28.40
2019-04-22T10:52:02.665Z,29.01
2019-04-22T10:54:33.689Z,28.58
2019-04-22T10:57:03.265Z,28.96
2019-04-22T10:59:34.351Z,28.56
2019-04-22T11:02:05.594Z,28.73
2019-04-22T11:04:36.339Z,29.15
2019-04-22T11:07:11.099Z,28.69
2019-04-22T11:09:50.767Z,28.73
2019-04-22T11:12:17.031Z,29.32
2019-04-22T11:14:45.428Z,28.43
2019-04-22T11:17:15.612Z,28.00
2019-04-22T11:19:45.803Z,28.30
2019-04-22T11:22:22.114Z,28.01
2019-04-22T11:24:48.584Z,27.99
2019-04-22T11:27:21.198Z,28.34
2019-04-22T11:29:53.205Z,27.23
2019-04-22T11:32:22.589Z,27.60
2019-04-22T11:34:52.075Z,27.96
2019-04-22T11:37:24.766Z,27.50
2019-04-22T11:40:02.163Z,28.19
2019-04-22T11:42:25.943Z,27.34
2019-04-22T11:44:55.386Z,27.45
2019-04-22T11:47:25.548Z,27.70
2019-04-22T11:49:54.976Z,28.71
2019-04-22T11:52:24.742Z,28.57
2019-04-22T11:54:54.921Z,27.73
2019-04-22T11:57:25.372Z,28.12
2019-04-22T11:59:54.812Z,27.97
2019-04-22T12:02:27.159Z,27.41
2019-04-22T12:04:58.217Z,27.17
2019-04-22T12:07:33.577Z,27.71
2019-04-22T12:10:22.342Z,28.09
2019-04-22T12:12:36.314Z,27.47
2019-04-22T12:15:06.512Z,27.33
2019-04-22T12:17:36.157Z,27.97
2019-04-22T12:20:08.799Z,27.71
2019-04-22T12:22:38.900Z,28.50
2019-04-22T12:25:12.366Z,26.67
2019-04-22T12:27:43.123Z,26.88
2019-04-22T12:30:14.614Z,27.04
2019-04-22T12:32:45.560Z,27.10
2019-04-22T12:35:17.878Z,27.55
2019-04-22T12:37:54.072Z,26.96
2019-04-22T12:40:31.552Z,26.81
2019-04-22T12:42:51.387Z,26.88
2019-04-22T12:45:22.461Z,27.06
2019-04-22T12:47:53.827Z,27.89
2019-04-22T12:50:29.237Z,27.32
2019-04-22T12:52:59.415Z,27.34
2019-04-22T12:55:26.073Z,27.97
2019-04-22T12:57:58.631Z,27.83
2019-04-22T13:00:28.463Z,28.41
2019-04-22T13:02:58.906Z,28.24
2019-04-22T13:05:29.206Z,27.95
2019-04-22T13:08:00.099Z,28.59
2019-04-22T13:10:40.473Z,27.84
2019-04-22T13:13:02.792Z,27.66
2019-04-22T13:15:33.041Z,27.15
2019-04-22T13:18:13.576Z,26.93
2019-04-22T13:20:36.650Z,27.11
2019-04-22T13:23:07.585Z,27.62
2019-04-22T13:25:38.791Z,26.84
2019-04-22T13:28:11.235Z,27.46
2019-04-22T13:30:41.721Z,26.83
2019-04-22T13:33:12.667Z,26.40
2019-04-22T13:35:43.632Z,26.91
2019-04-22T13:38:15.237Z,27.12
2019-04-22T13:41:00.670Z,26.25
2019-04-22T13:43:16.759Z,25.93
2019-04-22T13:45:47.756Z,26.30
2019-04-22T13:48:40.041Z,26.57
2019-04-22T13:51:21.939Z,26.86
2019-04-22T13:54:14.016Z,27.05
2019-04-22T13:56:15.560Z,26.71
2019-04-22T13:58:40.992Z,27.29
2019-04-22T14:01:04.929Z,27.53
2019-04-22T14:03:52.270Z,27.49
2019-04-22T14:06:22.681Z,27.01
2019-04-22T14:08:53.430Z,26.48
2019-04-22T14:11:32.374Z,26.68
2019-04-22T14:13:56.608Z,27.49
2019-04-22T14:16:27.001Z,27.11
2019-04-22T14:18:58.131Z,27.13
2019-04-22T14:21:27.564Z,27.42
2019-04-22T14:23:58.605Z,27.02
2019-04-22T14:26:46.888Z,27.48
2019-04-22T14:28:59.984Z,27.78
2019-04-22T14:31:30.893Z,27.37
2019-04-22T14:34:04.976Z,27.77
2019-04-22T14:36:33.039Z,28.20
2019-04-22T14:39:03.943Z,27.84
2019-04-22T14:41:49.734Z,27.83
2019-04-22T14:45:07.109Z,28.06
2019-04-22T14:47:11.602Z,28.18
2019-04-22T14:49:40.643Z,27.77
2019-04-22T14:52:13.036Z,27.74
2019-04-22T14:54:33.695Z,28.27
2019-04-22T14:56:48.577Z,28.57
2019-04-22T14:59:18.866Z,27.83
2019-04-22T15:01:49.768Z,27.67
2019-04-22T15:04:19.659Z,27.75
2019-04-22T15:06:52.754Z,28.10
2019-04-22T15:09:23.993Z,28.01
2019-04-22T15:12:05.779Z,28.38
2019-04-22T15:14:25.781Z,28.68
2019-04-22T15:17:20.814Z,29.15
2019-04-22T15:20:12.231Z,29.46
2019-04-22T15:22:41.854Z,28.61
2019-04-22T15:25:12.463Z,28.91
2019-04-22T15:27:41.868Z,28.85
2019-04-22T15:30:11.861Z,28.97
2019-04-22T15:32:43.140Z,28.93
2019-04-22T15:35:13.407Z,28.88
2019-04-22T15:37:43.456Z,29.22
2019-04-22T15:40:13.237Z,29.45
2019-04-22T15:42:43.816Z,29.06
2019-04-22T15:45:15.147Z,29.10
2019-04-22T15:50:26.704Z,29.30
2019-04-22T15:53:00.389Z,29.31
2019-04-22T15:55:29.137Z,29.37
2019-04-22T15:58:01.809Z,29.83
2019-04-22T16:00:47.877Z,29.38
2019-04-22T16:03:08.474Z,29.77
2019-04-22T16:05:36.474Z,30.51
2019-04-22T16:08:06.680Z,29.89
2019-04-22T16:10:37.741Z,29.41
2019-04-22T16:13:13.217Z,30.22
2019-04-22T16:15:38.614Z,29.64
2019-04-22T16:18:10.579Z,29.47
2019-04-22T16:20:40.520Z,29.70
2019-04-22T16:23:29.771Z,30.02
2019-04-22T16:26:09.438Z,29.01
2019-04-22T16:28:39.659Z,29.78
2019-04-22T16:31:09.421Z,29.23
2019-04-22T16:33:41.438Z,29.83
2019-04-22T16:36:11.034Z,29.33
2019-04-22T16:38:42.795Z,29.32
2019-04-22T16:41:12.893Z,30.17
2019-04-22T16:43:42.931Z,30.17
2019-04-22T16:46:12.201Z,29.69
2019-04-22T16:48:43.410Z,30.14
2019-04-22T16:51:13.893Z,30.00
2019-04-22T16:53:43.318Z,30.02
2019-04-22T16:56:13.021Z,29.96
2019-04-22T16:58:44.814Z,29.67
2019-04-22T17:01:48.557Z,29.71
2019-04-22T17:04:26.322Z,30.79
2019-04-22T17:06:57.481Z,30.03
2019-04-22T17:09:27.853Z,30.48
2019-04-22T17:11:58.101Z,30.80
2019-04-22T17:14:37.522Z,29.47
2019-04-22T17:17:00.166Z,29.85
2019-04-22T17:19:31.081Z,30.07
2019-04-22T17:22:01.695Z,29.85
2019-04-22T17:24:31.913Z,30.16
2019-04-22T17:27:02.276Z,29.47
2019-04-22T17:29:34.665Z,30.38
2019-04-22T17:32:10.132Z,29.97
2019-04-22T17:34:36.020Z,29.97
2019-04-22T17:37:14.179Z,29.90
2019-04-22T17:39:49.143Z,29.94
2019-04-22T17:42:29.393Z,29.74
2019-04-22T17:45:22.281Z,29.67
2019-04-22T17:48:14.188Z,29.85
2019-04-22T17:50:44.435Z,30.01
2019-04-22T17:53:24.881Z,30.59
2019-04-22T17:55:49.465Z,30.49
2019-04-22T17:58:21.094Z,30.60
2019-04-22T18:00:44.473Z,30.64
2019-04-22T18:03:12.766Z,30.40
2019-04-22T18:05:41.006Z,30.79
2019-04-22T18:08:25.606Z,29.83
2019-04-22T18:10:56.084Z,29.46
2019-04-22T18:13:32.070Z,29.84
2019-04-22T18:16:01.041Z,28.95
2019-04-22T18:18:33.650Z,28.82
2019-04-22T18:20:52.127Z,28.63
2019-04-22T18:23:19.222Z,28.63
2019-04-22T18:26:00.457Z,28.85
2019-04-22T18:28:42.192Z,28.55
2019-04-22T18:31:03.188Z,28.49
2019-04-22T18:33:34.370Z,28.72
2019-04-22T18:36:05.227Z,28.76
2019-04-22T18:38:48.146Z,29.47
2019-04-22T18:41:04.849Z,28.85
2019-04-22T18:43:44.718Z,29.09
2019-04-22T18:46:15.721Z,28.83
2019-04-22T18:48:45.878Z,28.91
2019-04-22T18:51:30.810Z,29.11
2019-04-22T18:54:19.687Z,29.69
2019-04-22T18:56:46.693Z,29.18
2019-04-22T18:59:10.443Z,30.11
2019-04-22T19:01:33.582Z,29.56
2019-04-22T19:04:11.586Z,29.67
2019-04-22T19:06:56.339Z,29.98
2019-04-22T19:09:38.269Z,30.25
2019-04-22T19:12:18.104Z,30.29
2019-04-22T19:14:41.512Z,30.10
2019-04-22T19:17:21.660Z,30.47
2019-04-22T19:19:43.633Z,30.08
2019-04-22T19:22:17.709Z,30.53
2019-04-22T19:24:44.318Z,30.29
2019-04-22T19:27:15.725Z,30.09
2019-04-22T19:29:55.873Z,29.84
2019-04-22T19:32:46.417Z,29.77
2019-04-22T19:35:09.751Z,29.74
2019-04-22T19:37:44.209Z,29.81
2019-04-22T19:40:36.949Z,29.32
2019-04-22T19:42:57.263Z,29.48
2019-04-22T19:45:15.731Z,29.30
2019-04-22T19:47:58.492Z,29.04
2019-04-22T19:50:28.100Z,29.03
2019-04-22T19:52:59.915Z,29.11
2019-04-22T19:55:30.915Z,29.29
2019-04-22T19:57:54.786Z,29.04
2019-04-22T20:00:49.434Z,28.95
2019-04-22T20:04:12.115Z,29.21
2019-04-22T20:06:37.852Z,29.54
2019-04-22T20:09:16.984Z,29.47
2019-04-22T20:11:41.852Z,29.77
2019-04-22T20:14:12.680Z,29.65
2019-04-22T20:16:38.568Z,29.69
2019-04-22T20:19:19.123Z,29.94
2019-04-22T20:21:51.818Z,30.53
2019-04-22T20:24:10.044Z,30.44
2019-04-22T20:26:59.536Z,30.29
2019-04-22T20:29:27.139Z,30.52
2019-04-22T20:31:57.212Z,30.60
2019-04-22T20:34:26.472Z,30.91
2019-04-22T20:37:03.523Z,30.94
2019-04-22T20:39:33.420Z,31.17
2019-04-22T20:42:12.445Z,30.79
2019-04-22T20:44:36.971Z,30.76
2019-04-22T20:47:04.615Z,31.39
2019-04-22T20:49:40.335Z,31.74
2019-04-22T20:52:13.664Z,31.92
2019-04-22T20:54:40.778Z,31.85
2019-04-22T20:57:07.375Z,32.14
2019-04-22T20:59:42.521Z,31.87
2019-04-22T21:02:07.617Z,32.21
2019-04-22T21:04:35.932Z,32.20
2019-04-22T21:07:16.808Z,32.58
2019-04-22T21:09:49.228Z,32.75
2019-04-22T21:12:14.888Z,33.16
2019-04-22T21:14:55.180Z,32.87
2019-04-22T21:17:25.011Z,33.14
2019-04-22T21:20:00.126Z,33.59
2019-04-22T21:22:25.997Z,33.29
2019-04-22T21:24:52.845Z,33.33
2019-04-22T21:27:32.227Z,33.39
2019-04-22T21:29:56.964Z,33.90
2019-04-22T21:32:32.511Z,33.85
2019-04-22T21:35:22.943Z,34.20
2019-04-22T21:37:37.866Z,34.12
2019-04-22T21:39:58.572Z,34.34
2019-04-22T21:42:34.719Z,34.35
2019-04-22T21:45:04.732Z,34.60
2019-04-22T21:47:44.863Z,34.56
2019-04-22T21:50:28.243Z,34.58
2019-04-22T21:52:40.732Z,34.63
2019-04-22T21:55:16.637Z,34.49
2019-04-22T21:58:08.021Z,35.07
2019-04-22T22:00:53.497Z,35.15
2019-04-22T22:03:20.634Z,34.91
2019-04-22T22:05:36.875Z,35.23
2019-04-22T22:08:23.219Z,35.70
2019-04-22T22:10:44.989Z,35.66
2019-04-22T22:13:20.133Z,35.55
2019-04-22T22:15:51.063Z,35.72
2019-04-22T22:18:16.543Z,35.63
2019-04-22T22:21:13.051Z,35.78
2019-04-22T22:25:52.275Z,36.08
2019-04-22T22:28:40.005Z,35.78
2019-04-22T22:31:05.084Z,35.84
2019-04-22T22:33:37.403Z,36.30
2019-04-22T22:36:03.585Z,36.27
2019-04-22T22:38:31.447Z,36.21
2019-04-22T22:40:48.000Z,36.46
2019-04-22T22:43:26.606Z,36.43
2019-04-22T22:45:55.254Z,36.65
2019-04-22T22:48:43.429Z,36.64
2019-04-22T22:51:09.864Z,36.61
2019-04-22T22:53:47.910Z,37.08
2019-04-22T22:56:10.736Z,36.98
2019-04-22T22:58:50.528Z,36.98
2019-04-22T23:01:14.985Z,36.88
2019-04-22T23:06:26.167Z,37.50
2019-04-22T23:09:01.879Z,37.76
2019-04-22T23:11:40.487Z,37.62
2019-04-22T23:13:57.874Z,37.83
2019-04-22T23:16:17.669Z,37.81
2019-04-22T23:18:57.625Z,38.22
2019-04-22T23:21:35.191Z,38.29
2019-04-22T23:24:17.352Z,38.13
2019-04-22T23:26:58.844Z,38.24
2019-04-22T23:29:36.649Z,38.31
2019-04-22T23:32:17.248Z,38.44
2019-04-22T23:34:53.441Z,38.46
2019-04-22T23:37:21.710Z,38.75
2019-04-22T23:40:15.786Z,38.99
2019-04-22T23:42:33.397Z,38.79
2019-04-22T23:45:09.057Z,39.13
2019-04-22T23:47:35.371Z,39.04
2019-04-22T23:50:14.179Z,39.06
2019-04-22T23:52:47.948Z,38.94
2019-04-22T23:55:23.038Z,38.84
2019-04-22T23:57:53.273Z,39.28
